Time;durP1;ratioP1;P1;durP2;ratioP2;P2;SDS_P1;SDS_P2;PMS_P1;PMS_P2;Temp;Humidity;BMP_temperature;BMP_pressure;BME280_temperature;BME280_humidity;BME280_pressure;Samples;Min_cycle;Max_cycle;Signal;HPM_P1;HPM_P2
2023/07/18 00:03:39;;;;;;;9.63;5.10;;;17.90;99.90;;;;;;25595464;23;20017;-56
2023/07/18 00:13:41;;;;;;;8.35;4.35;;;17.70;99.90;;;;;;25595430;23;20005;-56
2023/07/18 00:23:42;;;;;;;9.40;5.10;;;17.70;99.90;;;;;;25595428;23;20012;-56
2023/07/18 00:33:44;;;;;;;14.20;4.55;;;17.60;99.90;;;;;;25594661;23;20360;-46
2023/07/18 00:43:45;;;;;;;12.32;5.07;;;17.60;99.90;;;;;;25592844;23;20372;-56
2023/07/18 00:53:47;;;;;;;10.88;4.85;;;17.40;99.90;;;;;;25592645;23;20009;-56
2023/07/18 01:03:49;;;;;;;8.05;4.70;;;17.40;99.90;;;;;;25591841;23;20013;-49
2023/07/18 01:13:50;;;;;;;12.68;5.38;;;17.30;99.90;;;;;;25593805;23;20318;-56
2023/07/18 01:23:52;;;;;;;11.27;5.38;;;17.30;99.90;;;;;;25594514;23;20009;-56
2023/07/18 01:33:54;;;;;;;12.45;5.57;;;17.10;99.90;;;;;;25592554;23;20005;-56
2023/07/18 01:43:56;;;;;;;9.25;6.30;;;17.20;99.90;;;;;;25592241;23;20071;-48
2023/07/18 01:53:58;;;;;;;11.55;6.35;;;17.00;99.90;;;;;;25591689;23;20001;-53
2023/07/18 02:04:00;;;;;;;14.93;6.40;;;16.80;99.90;;;;;;25591445;23;20005;-55
2023/07/18 02:14:03;;;;;;;13.13;6.97;;;16.60;99.90;;;;;;25590898;23;20009;-56
2023/07/18 02:24:05;;;;;;;12.45;7.75;;;16.80;99.90;;;;;;25590430;23;20001;-56
2023/07/18 02:34:06;;;;;;;14.63;7.70;;;16.70;99.90;;;;;;25588680;23;20001;-55
2023/07/18 02:44:08;;;;;;;15.15;7.80;;;16.90;99.90;;;;;;25590014;23;20095;-56
2023/07/18 02:54:10;;;;;;;16.20;9.15;;;17.00;99.90;;;;;;25588034;23;20001;-45
2023/07/18 03:04:11;;;;;;;17.38;9.65;;;17.00;99.90;;;;;;25588312;23;20001;-56
2023/07/18 03:14:14;;;;;;;19.33;10.20;;;17.10;99.90;;;;;;25589264;23;20310;-46
2023/07/18 03:24:16;;;;;;;16.20;10.95;;;17.10;99.90;;;;;;25590205;23;20001;-45
2023/07/18 03:34:18;;;;;;;20.05;11.43;;;17.20;99.90;;;;;;25597263;23;20471;-55
2023/07/18 03:44:21;;;;;;;14.07;11.07;;;17.20;99.90;;;;;;25596916;23;20348;-55
2023/07/18 03:54:22;;;;;;;21.02;12.80;;;17.20;99.90;;;;;;25596270;23;20009;-57
2023/07/18 04:04:24;;;;;;;16.08;11.55;;;16.80;99.90;;;;;;25596233;23;20016;-56
2023/07/18 04:14:26;;;;;;;16.88;12.27;;;16.80;99.90;;;;;;25596042;23;20001;-57
2023/07/18 04:24:29;;;;;;;19.98;13.32;;;16.80;99.90;;;;;;25595270;23;20075;-47
2023/07/18 04:34:31;;;;;;;21.90;15.70;;;17.00;99.90;;;;;;25594834;23;20040;-46
2023/07/18 04:44:33;;;;;;;25.73;16.23;;;17.10;99.90;;;;;;25594729;23;20021;-45
2023/07/18 04:54:34;;;;;;;21.83;13.40;;;17.30;99.90;;;;;;25595662;23;20005;-52
2023/07/18 05:04:36;;;;;;;22.38;14.48;;;17.50;99.90;;;;;;25592556;23;20380;-55
2023/07/18 05:14:37;;;;;;;26.17;16.63;;;17.40;99.90;;;;;;25593526;23;20297;-50
2023/07/18 05:24:39;;;;;;;22.77;16.20;;;17.40;99.90;;;;;;25592900;23;20013;-48
2023/07/18 05:34:40;;;;;;;23.15;15.82;;;17.60;99.90;;;;;;25592472;23;20012;-50
2023/07/18 05:44:42;;;;;;;20.27;14.88;;;17.70;99.90;;;;;;25591605;23;20091;-55
2023/07/18 05:54:45;;;;;;;22.05;13.35;;;17.80;99.90;;;;;;25591642;23;20333;-49
2023/07/18 06:04:47;;;;;;;20.33;13.15;;;18.00;99.90;;;;;;25591424;23;20012;-56
2023/07/18 06:14:48;;;;;;;18.42;12.40;;;18.30;99.90;;;;;;25590166;23;20005;-56
2023/07/18 06:24:50;;;;;;;14.05;8.57;;;18.80;99.90;;;;;;25591067;23;20009;-47
2023/07/18 06:34:52;;;;;;;12.50;7.68;;;21.80;99.90;;;;;;25589026;23;20005;-49
2023/07/18 06:44:53;;;;;;;16.40;7.63;;;24.10;99.90;;;;;;25631158;23;20005;-48
2023/07/18 06:54:55;;;;;;;12.90;7.25;;;25.90;99.90;;;;;;25588033;23;20336;-58
2023/07/18 07:04:57;;;;;;;10.23;6.85;;;27.80;99.90;;;;;;25589137;23;20009;-58
2023/07/18 07:14:59;;;;;;;11.85;8.05;;;28.90;98.30;;;;;;25589507;23;20344;-58
2023/07/18 07:25:00;;;;;;;10.27;6.95;;;29.90;96.60;;;;;;25589062;23;20009;-58
2023/07/18 07:35:04;;;;;;;9.38;6.57;;;30.80;95.50;;;;;;25587392;23;20009;-58
2023/07/18 07:45:07;;;;;;;9.38;7.60;;;31.30;95.70;;;;;;25629717;23;20001;-58
2023/07/18 07:55:11;;;;;;;12.35;8.60;;;31.20;94.70;;;;;;25588255;23;20419;-58
2023/07/18 08:05:13;;;;;;;9.65;8.60;;;31.10;94.90;;;;;;25587710;23;20086;-58
2023/07/18 08:15:15;;;;;;;11.10;7.80;;;31.30;94.30;;;;;;25591310;23;20052;-58
2023/07/18 08:25:17;;;;;;;14.07;10.27;;;31.60;94.00;;;;;;25595847;23;20008;-58
2023/07/18 08:35:19;;;;;;;12.32;9.02;;;31.70;93.00;;;;;;25594748;23;20036;-58
2023/07/18 08:45:24;;;;;;;10.65;8.52;;;31.50;93.90;;;;;;25594576;23;20064;-58
2023/07/18 08:55:29;;;;;;;12.25;9.52;;;31.70;94.50;;;;;;25593411;23;20424;-58
2023/07/18 09:05:37;;;;;;;11.23;8.43;;;31.90;93.60;;;;;;25592648;23;20008;-58
2023/07/18 09:15:39;;;;;;;14.45;9.20;;;31.80;93.80;;;;;;25634004;23;20009;-58
2023/07/18 09:25:41;;;;;;;13.57;10.20;;;32.00;95.20;;;;;;25591068;23;20060;-58
2023/07/18 09:35:43;;;;;;;15.65;9.68;;;32.20;94.10;;;;;;25592577;23;20009;-58
2023/07/18 09:45:45;;;;;;;14.70;10.43;;;31.60;95.50;;;;;;25589760;23;20067;-58
2023/07/18 09:55:46;;;;;;;15.27;9.38;;;31.90;94.10;;;;;;25591587;23;20009;-58
2023/07/18 10:05:49;;;;;;;14.68;10.25;;;32.40;94.00;;;;;;25590397;23;20009;-58
2023/07/18 10:16:12;;;;;;;14.75;9.27;;;32.50;94.30;;;;;;25590980;23;20009;-59
2023/07/18 10:26:14;;;;;;;14.50;10.60;;;33.00;94.30;;;;;;25590725;23;20016;-58
2023/07/18 10:36:25;;;;;;;15.95;10.43;;;33.20;93.40;;;;;;25589871;23;20563;-50
2023/07/18 10:46:36;;;;;;;15.50;11.50;;;32.90;94.70;;;;;;25588850;23;20009;-58
2023/07/18 10:56:38;;;;;;;21.58;12.95;;;33.10;93.90;;;;;;25630180;23;20009;-58
2023/07/18 11:06:50;;;;;;;20.50;15.52;;;33.20;94.40;;;;;;25589059;23;20495;-58
2023/07/18 11:16:52;;;;;;;19.90;15.90;;;33.00;93.90;;;;;;25630241;23;20079;-59
2023/07/18 11:27:19;;;;;;;22.83;16.25;;;32.80;94.00;;;;;;25588828;23;20004;-58
2023/07/18 11:37:22;;;;;;;18.67;15.13;;;33.10;95.00;;;;;;25618115;23;20005;-60
2023/07/18 11:47:24;;;;;;;23.00;18.88;;;33.10;94.00;;;;;;25590530;23;20047;-58
2023/07/18 11:57:25;;;;;;;22.35;16.05;;;32.00;94.50;;;;;;25595445;23;19997;-48
2023/07/18 12:07:27;;;;;;;24.55;16.40;;;33.10;94.60;;;;;;25594890;23;20005;-58
2023/07/18 12:17:29;;;;;;;21.63;15.93;;;33.40;95.10;;;;;;25595072;23;20005;-58
2023/07/18 12:27:30;;;;;;;19.67;14.35;;;33.20;94.30;;;;;;25595300;23;20015;-58
2023/07/18 12:37:32;;;;;;;17.35;12.80;;;33.00;94.10;;;;;;25594669;23;20013;-58
2023/07/18 12:47:33;;;;;;;16.20;13.07;;;33.20;94.30;;;;;;25594898;23;20397;-58
2023/07/18 12:57:35;;;;;;;16.77;11.90;;;33.70;93.40;;;;;;25593601;23;20336;-57
2023/07/18 13:07:37;;;;;;;17.98;11.70;;;32.50;94.70;;;;;;25592919;23;20449;-58
2023/07/18 13:17:40;;;;;;;11.98;8.52;;;32.30;94.40;;;;;;25593420;23;20027;-58
2023/07/18 13:27:42;;;;;;;16.85;9.70;;;32.70;94.40;;;;;;25592213;23;20009;-58
2023/07/18 13:37:43;;;;;;;12.10;8.75;;;32.40;93.00;;;;;;25592057;23;20075;-58
2023/07/18 13:47:45;;;;;;;15.10;8.80;;;31.70;94.90;;;;;;25591674;23;20096;-58
2023/07/18 13:57:46;;;;;;;11.93;9.23;;;32.00;94.10;;;;;;25590822;23;20005;-58
2023/07/18 14:07:48;;;;;;;12.20;9.45;;;32.40;91.90;;;;;;25589168;23;20009;-49
2023/07/18 14:17:50;;;;;;;15.45;8.77;;;32.40;91.80;;;;;;25591054;23;20013;-57
2023/07/18 14:27:53;;;;;;;13.75;8.68;;;32.50;92.40;;;;;;25590180;23;20008;-58
2023/07/18 14:37:54;;;;;;;19.73;10.35;;;32.60;92.10;;;;;;25589831;23;20013;-58
2023/07/18 14:47:56;;;;;;;12.43;9.38;;;32.40;92.80;;;;;;25589824;23;20017;-58
2023/07/18 14:57:57;;;;;;;14.35;8.63;;;31.80;93.10;;;;;;25587402;23;20005;-57
2023/07/18 15:07:59;;;;;;;17.50;10.93;;;31.50;93.90;;;;;;25588814;23;20008;-57
2023/07/18 15:18:00;;;;;;;18.17;9.32;;;31.40;93.40;;;;;;25588644;23;20009;-57
2023/07/18 15:28:04;;;;;;;14.50;9.90;;;31.10;93.80;;;;;;25588318;23;20399;-58
2023/07/18 15:38:05;;;;;;;18.90;11.52;;;30.60;94.70;;;;;;25588032;23;20020;-56
2023/07/18 15:48:07;;;;;;;16.40;10.25;;;29.90;94.50;;;;;;25588324;23;20322;-58
2023/07/18 15:58:09;;;;;;;17.63;11.55;;;28.10;97.50;;;;;;25588159;23;20088;-57
2023/07/18 16:08:12;;;;;;;16.13;9.55;;;27.20;98.20;;;;;;25586615;23;20080;-58
2023/07/18 16:18:13;;;;;;;15.88;11.00;;;26.70;98.90;;;;;;25587081;23;20376;-58
2023/07/18 16:28:15;;;;;;;17.83;10.93;;;26.90;99.20;;;;;;25587031;23;20421;-58
2023/07/18 16:38:17;;;;;;;19.25;12.27;;;26.50;99.30;;;;;;25592414;23;20008;-58
2023/07/18 16:48:20;;;;;;;18.27;12.00;;;25.90;99.90;;;;;;25594279;23;20017;-57
2023/07/18 16:58:21;;;;;;;17.48;11.15;;;25.40;99.90;;;;;;25593726;23;20012;-58
2023/07/18 17:08:24;;;;;;;18.65;11.52;;;25.20;99.90;;;;;;25591648;23;20384;-58
2023/07/18 17:18:26;;;;;;;17.60;11.70;;;24.80;99.90;;;;;;25592754;23;20004;-58
2023/07/18 17:28:29;;;;;;;23.10;12.52;;;24.30;99.90;;;;;;25592117;23;20016;-57
2023/07/18 17:38:32;;;;;;;24.27;13.75;;;23.80;99.90;;;;;;25590950;23;20016;-57
2023/07/18 17:48:34;;;;;;;18.27;12.10;;;23.20;99.90;;;;;;25590395;23;20009;-58
2023/07/18 17:58:36;;;;;;;17.67;12.70;;;23.10;99.90;;;;;;25591769;23;20012;-58
2023/07/18 18:08:37;;;;;;;17.30;12.18;;;23.00;99.90;;;;;;25591287;23;20522;-58
2023/07/18 18:18:39;;;;;;;17.35;11.95;;;22.90;99.90;;;;;;25590938;23;20384;-57
2023/07/18 18:28:40;;;;;;;23.50;14.70;;;22.70;99.90;;;;;;25590569;23;20005;-57
2023/07/18 18:38:43;;;;;;;18.70;12.48;;;22.60;99.90;;;;;;25589020;23;20009;-57
2023/07/18 18:48:44;;;;;;;18.08;12.93;;;22.60;99.90;;;;;;25589828;23;20445;-58
2023/07/18 18:58:47;;;;;;;18.85;12.18;;;22.50;99.90;;;;;;25589509;23;20013;-58
2023/07/18 19:08:49;;;;;;;19.80;13.55;;;22.30;99.90;;;;;;25587843;23;20087;-58
2023/07/18 19:18:51;;;;;;;21.25;15.45;;;22.10;99.90;;;;;;25589158;23;20005;-58
2023/07/18 19:28:52;;;;;;;22.60;14.82;;;21.80;99.90;;;;;;25588048;23;20055;-57
2023/07/18 19:38:54;;;;;;;20.88;15.77;;;21.50;99.90;;;;;;25585331;23;20021;-49
2023/07/18 19:48:56;;;;;;;20.95;16.95;;;21.30;99.90;;;;;;25588155;23;20016;-57
2023/07/18 19:58:58;;;;;;;24.65;19.23;;;21.00;99.90;;;;;;25586651;23;20013;-57
2023/07/18 20:09:00;;;;;;;26.23;20.80;;;20.70;99.90;;;;;;25590452;23;20514;-57
2023/07/18 20:19:02;;;;;;;26.42;21.83;;;20.40;99.90;;;;;;25594955;23;20437;-57
2023/07/18 20:29:04;;;;;;;34.42;26.38;;;20.20;99.90;;;;;;25594678;23;20005;-57
2023/07/18 20:39:06;;;;;;;28.02;22.70;;;19.90;99.90;;;;;;25594030;23;20013;-57
2023/07/18 20:49:10;;;;;;;29.48;22.02;;;19.90;99.90;;;;;;25592584;23;20091;-56
2023/07/18 20:59:12;;;;;;;25.60;21.05;;;20.10;99.90;;;;;;25593365;23;20032;-56
2023/07/18 21:09:14;;;;;;;23.85;19.35;;;20.30;99.90;;;;;;25593041;23;20385;-57
2023/07/18 21:19:16;;;;;;;24.65;20.17;;;20.50;99.90;;;;;;25592199;23;20005;-57
2023/07/18 21:29:17;;;;;;;25.02;18.35;;;20.40;99.90;;;;;;25592892;23;20428;-48
2023/07/18 21:39:19;;;;;;;20.50;17.42;;;20.50;99.90;;;;;;25592472;23;20397;-55
2023/07/18 21:49:21;;;;;;;24.05;18.35;;;20.70;99.90;;;;;;25592152;23;20013;-57
2023/07/18 21:59:22;;;;;;;25.63;18.20;;;20.80;99.90;;;;;;25590271;23;20016;-51
2023/07/18 22:09:24;;;;;;;23.08;18.20;;;20.60;99.90;;;;;;25591098;23;20009;-57
2023/07/18 22:19:26;;;;;;;24.75;19.27;;;20.40;99.90;;;;;;25591091;23;20001;-56
2023/07/18 22:29:27;;;;;;;26.13;19.63;;;20.00;99.90;;;;;;25590297;23;20001;-49
2023/07/18 22:39:29;;;;;;;29.02;20.08;;;19.70;99.90;;;;;;25589943;23;20017;-56
2023/07/18 22:49:31;;;;;;;30.40;21.95;;;19.40;99.90;;;;;;25589968;23;20009;-47
2023/07/18 22:59:32;;;;;;;27.58;20.25;;;19.10;99.90;;;;;;25589527;23;20009;-57
2023/07/18 23:09:34;;;;;;;28.63;22.95;;;19.00;99.90;;;;;;25589192;23;20005;-46
2023/07/18 23:19:35;;;;;;;31.38;23.77;;;18.90;99.90;;;;;;25588859;23;20001;-48
2023/07/18 23:29:37;;;;;;;28.50;21.85;;;18.80;99.90;;;;;;25588872;23;20005;-56
2023/07/18 23:39:38;;;;;;;27.52;21.90;;;18.70;99.90;;;;;;25588477;23;20523;-56
2023/07/18 23:49:40;;;;;;;24.83;20.50;;;18.60;99.90;;;;;;25596615;23;20009;-48
2023/07/18 23:59:42;;;;;;;32.03;21.73;;;18.60;99.90;;;;;;25596465;23;20083;-56
